createdAt,value
2018-12-13T00:01:27.493Z,0.40
2018-12-13T00:03:56.270Z,0.50
2018-12-13T00:06:24.954Z,0.50
2018-12-13T00:08:53.688Z,0.50
2018-12-13T00:11:22.525Z,0.50
2018-12-13T00:13:51.331Z,0.50
2018-12-13T00:16:20.123Z,0.50
2018-12-13T00:18:49.976Z,0.50
2018-12-13T00:21:18.757Z,0.50
2018-12-13T00:23:47.493Z,0.50
2018-12-13T00:26:16.315Z,0.50
2018-12-13T00:28:45.126Z,0.60
2018-12-13T00:31:13.939Z,0.60
2018-12-13T00:33:42.702Z,0.60
2018-12-13T00:36:11.478Z,0.60
2018-12-13T00:38:40.171Z,0.60
2018-12-13T00:41:09.000Z,0.60
2018-12-13T00:43:37.730Z,0.60
2018-12-13T00:46:06.520Z,0.70
2018-12-13T00:48:35.221Z,0.70
2018-12-13T00:51:03.978Z,0.70
2018-12-13T00:53:32.750Z,0.70
2018-12-13T00:56:01.503Z,0.80
2018-12-13T00:58:30.268Z,0.80
2018-12-13T01:01:01.263Z,0.80
2018-12-13T01:03:30.687Z,0.80
2018-12-13T01:05:59.484Z,0.80
2018-12-13T01:08:28.211Z,0.80
2018-12-13T01:10:56.976Z,0.80
2018-12-13T01:13:25.675Z,0.80
2018-12-13T01:15:54.504Z,0.70
2018-12-13T01:18:23.220Z,0.80
2018-12-13T01:20:51.897Z,0.80
2018-12-13T01:23:20.698Z,0.80
2018-12-13T01:25:49.418Z,0.80
2018-12-13T01:28:18.158Z,0.80
2018-12-13T01:30:46.852Z,0.80
2018-12-13T01:33:15.571Z,0.80
2018-12-13T01:35:44.322Z,0.80
2018-12-13T01:38:13.085Z,0.80
2018-12-13T01:40:41.780Z,0.80
2018-12-13T01:43:10.535Z,0.80
2018-12-13T01:45:39.214Z,0.90
2018-12-13T01:48:07.951Z,0.90
2018-12-13T01:50:36.717Z,0.90
2018-12-13T01:53:05.468Z,0.90
2018-12-13T01:55:34.219Z,0.90
2018-12-13T01:58:02.907Z,0.80
2018-12-13T02:00:31.671Z,0.90
2018-12-13T02:03:00.343Z,0.90
2018-12-13T02:05:29.201Z,0.90
2018-12-13T02:07:57.916Z,0.90
2018-12-13T02:10:26.637Z,0.90
2018-12-13T02:12:55.369Z,0.90
2018-12-13T02:15:24.230Z,0.90
2018-12-13T02:17:52.898Z,0.90
2018-12-13T02:20:21.652Z,0.90
2018-12-13T02:22:50.396Z,1.00
2018-12-13T02:25:19.130Z,1.00
2018-12-13T02:27:47.904Z,1.00
2018-12-13T02:30:18.852Z,1.00
2018-12-13T02:32:47.618Z,1.00
2018-12-13T02:35:16.389Z,1.10
2018-12-13T02:37:45.165Z,1.10
2018-12-13T02:40:13.890Z,1.10
2018-12-13T02:42:42.637Z,1.10
2018-12-13T02:45:11.343Z,1.10
2018-12-13T02:47:40.110Z,1.10
2018-12-13T02:50:08.952Z,1.20
2018-12-13T02:52:37.644Z,1.20
2018-12-13T02:55:06.522Z,1.20
2018-12-13T02:57:35.310Z,1.20
2018-12-13T03:00:04.609Z,1.20
2018-12-13T03:02:33.420Z,1.20
2018-12-13T03:05:02.134Z,1.20
2018-12-13T03:07:30.937Z,1.20
2018-12-13T03:09:59.641Z,1.20
2018-12-13T03:12:28.382Z,1.20
2018-12-13T03:14:57.143Z,1.30
2018-12-13T03:17:25.877Z,1.30
2018-12-13T03:19:54.545Z,1.30
2018-12-13T03:22:23.310Z,1.30
2018-12-13T03:24:52.034Z,1.30
2018-12-13T03:27:20.755Z,1.30
2018-12-13T03:29:49.568Z,1.30
2018-12-13T03:32:18.304Z,1.30
2018-12-13T03:34:47.033Z,1.30
2018-12-13T03:37:20.663Z,1.30
2018-12-13T03:39:46.623Z,1.30
2018-12-13T03:42:15.349Z,1.30
2018-12-13T03:44:44.060Z,1.40
2018-12-13T03:47:12.799Z,1.40
2018-12-13T03:49:41.501Z,1.40
2018-12-13T03:52:10.284Z,1.40
2018-12-13T03:54:39.001Z,1.40
2018-12-13T03:57:07.776Z,1.40
2018-12-13T03:59:36.570Z,1.40
2018-12-13T04:02:05.381Z,1.50
2018-12-13T04:04:34.106Z,1.50
2018-12-13T04:07:02.772Z,1.50
2018-12-13T04:09:31.533Z,1.50
2018-12-13T04:12:00.295Z,1.50
2018-12-13T04:14:29.107Z,1.50
2018-12-13T04:16:57.809Z,1.50
2018-12-13T04:19:26.506Z,1.60
2018-12-13T04:21:55.188Z,1.50
2018-12-13T04:24:23.925Z,1.50
2018-12-13T04:26:52.627Z,1.60
2018-12-13T04:29:21.369Z,1.60
2018-12-13T04:31:50.239Z,1.60
2018-12-13T04:34:18.967Z,1.60
2018-12-13T04:36:47.689Z,1.60
2018-12-13T04:39:16.412Z,1.70
2018-12-13T04:41:45.105Z,1.70
2018-12-13T04:44:13.867Z,1.70
2018-12-13T04:46:42.563Z,1.70
2018-12-13T04:49:11.333Z,1.70
2018-12-13T04:51:40.019Z,1.70
2018-12-13T04:54:08.782Z,1.70
2018-12-13T04:56:37.598Z,1.80
2018-12-13T04:59:06.326Z,1.80
2018-12-13T05:01:35.071Z,1.70
2018-12-13T05:04:03.958Z,1.80
2018-12-13T05:06:32.686Z,1.80
2018-12-13T05:09:01.468Z,1.80
2018-12-13T05:11:30.231Z,1.80
2018-12-13T05:13:58.960Z,1.80
2018-12-13T05:16:27.695Z,1.80
2018-12-13T05:18:56.404Z,1.80
2018-12-13T05:21:25.101Z,1.80
2018-12-13T05:23:53.842Z,1.80
2018-12-13T05:26:22.519Z,1.80
2018-12-13T05:28:51.356Z,1.80
2018-12-13T05:31:20.440Z,1.80
2018-12-13T05:33:49.176Z,1.80
2018-12-13T05:36:17.978Z,1.80
2018-12-13T05:38:46.790Z,1.80
2018-12-13T05:41:15.600Z,1.80
2018-12-13T05:43:48.389Z,1.80
2018-12-13T05:46:17.254Z,1.80
2018-12-13T05:48:46.117Z,1.80
2018-12-13T05:51:14.897Z,1.80
2018-12-13T05:56:24.609Z,1.80
2018-12-13T05:58:59.920Z,1.80
2018-12-13T06:01:28.753Z,1.80
2018-12-13T06:03:57.490Z,1.80
2018-12-13T06:06:26.317Z,1.80
2018-12-13T06:08:55.115Z,1.80
2018-12-13T06:11:23.854Z,1.80
2018-12-13T06:13:52.539Z,1.80
2018-12-13T06:16:21.288Z,1.80
2018-12-13T06:18:50.006Z,1.80
2018-12-13T06:21:18.762Z,1.90
2018-12-13T06:23:50.751Z,1.80
2018-12-13T06:26:23.977Z,1.80
2018-12-13T06:28:56.277Z,1.90
2018-12-13T06:31:29.619Z,1.80
2018-12-13T06:34:02.838Z,1.80
2018-12-13T06:36:32.258Z,1.80
2018-12-13T06:39:01.493Z,1.80
2018-12-13T06:41:30.676Z,1.80
2018-12-13T06:43:59.748Z,1.80
2018-12-13T06:46:28.663Z,1.80
2018-12-13T06:48:57.671Z,1.90
2018-12-13T06:51:26.573Z,1.80
2018-12-13T06:53:55.556Z,1.90
2018-12-13T06:56:26.167Z,1.80
2018-12-13T06:58:55.157Z,1.80
2018-12-13T07:01:24.253Z,1.80
2018-12-13T07:03:53.203Z,1.80
2018-12-13T07:06:22.163Z,1.80
2018-12-13T07:08:51.120Z,1.80
2018-12-13T07:11:20.245Z,1.90
2018-12-13T07:13:49.022Z,1.80
2018-12-13T07:16:17.787Z,1.80
2018-12-13T07:18:46.608Z,1.80
2018-12-13T07:21:15.330Z,1.80
2018-12-13T07:23:44.217Z,1.80
2018-12-13T07:26:12.875Z,1.80
2018-12-13T07:28:41.677Z,1.80
2018-12-13T07:31:10.484Z,1.80
2018-12-13T07:33:39.247Z,1.80
2018-12-13T07:36:07.960Z,1.80
2018-12-13T07:38:36.740Z,1.80
2018-12-13T07:41:05.434Z,1.80
2018-12-13T07:43:34.185Z,1.80
2018-12-13T07:46:02.919Z,1.80
2018-12-13T07:48:31.672Z,1.80
2018-12-13T07:51:00.423Z,1.80
2018-12-13T07:53:29.132Z,1.80
2018-12-13T07:55:57.897Z,1.80
2018-12-13T07:58:26.632Z,1.80
2018-12-13T08:00:55.586Z,1.90
2018-12-13T08:03:24.379Z,1.90
2018-12-13T08:05:53.207Z,1.90
2018-12-13T08:08:21.986Z,1.90
2018-12-13T08:10:50.711Z,1.90
2018-12-13T08:13:19.418Z,2.00
2018-12-13T08:15:48.151Z,2.00
2018-12-13T08:18:16.910Z,1.90
2018-12-13T08:20:45.656Z,2.00
2018-12-13T08:23:14.715Z,2.00
2018-12-13T08:25:43.442Z,2.10
2018-12-13T08:28:12.185Z,2.10
2018-12-13T08:30:40.880Z,2.10
2018-12-13T08:33:09.604Z,2.10
2018-12-13T08:35:38.440Z,2.10
2018-12-13T08:38:07.168Z,2.10
2018-12-13T08:40:36.050Z,2.20
2018-12-13T08:43:05.107Z,2.10
2018-12-13T08:45:34.159Z,2.20
2018-12-13T08:48:02.957Z,2.20
2018-12-13T08:50:31.739Z,2.20
2018-12-13T08:53:00.476Z,2.20
2018-12-13T08:55:29.248Z,2.20
2018-12-13T08:57:58.031Z,2.20
2018-12-13T09:00:26.759Z,2.20
2018-12-13T09:02:55.501Z,2.30
2018-12-13T09:05:24.307Z,2.30
2018-12-13T09:07:53.045Z,2.40
2018-12-13T09:10:21.869Z,2.40
2018-12-13T09:12:50.763Z,2.40
2018-12-13T09:15:19.901Z,2.40
2018-12-13T09:17:48.778Z,2.50
2018-12-13T09:20:17.560Z,2.50
2018-12-13T09:22:46.343Z,2.50
2018-12-13T09:25:15.146Z,2.50
2018-12-13T09:27:43.963Z,2.60
2018-12-13T09:30:12.872Z,2.60
2018-12-13T09:32:41.652Z,2.60
2018-12-13T09:35:10.515Z,2.70
2018-12-13T09:37:39.223Z,2.70
2018-12-13T09:40:08.083Z,2.80
2018-12-13T09:42:36.856Z,2.80
2018-12-13T09:45:06.861Z,2.80
2018-12-13T09:47:35.661Z,2.90
2018-12-13T09:50:05.142Z,2.90
2018-12-13T09:52:33.827Z,3.00
2018-12-13T09:55:05.631Z,3.00
2018-12-13T09:57:35.540Z,3.00
2018-12-13T10:00:06.492Z,2.90
2018-12-13T10:02:35.220Z,3.00
2018-12-13T10:05:04.244Z,2.90
2018-12-13T10:07:33.034Z,2.90
2018-12-13T10:10:01.798Z,2.90
2018-12-13T10:12:30.500Z,2.80
2018-12-13T10:14:59.691Z,2.80
2018-12-13T10:17:28.492Z,2.80
2018-12-13T10:19:57.248Z,2.80
2018-12-13T10:22:25.980Z,2.80
2018-12-13T10:24:54.752Z,2.90
2018-12-13T10:27:23.511Z,2.90
2018-12-13T10:29:52.271Z,2.90
2018-12-13T10:32:20.997Z,2.90
2018-12-13T10:34:49.778Z,3.00
2018-12-13T10:37:18.497Z,3.00
2018-12-13T10:39:47.244Z,3.10
2018-12-13T10:42:15.970Z,3.20
2018-12-13T10:44:44.728Z,3.30
2018-12-13T10:47:13.444Z,3.30
2018-12-13T10:49:42.162Z,3.30
2018-12-13T10:52:10.938Z,3.40
2018-12-13T10:54:39.648Z,3.40
2018-12-13T10:57:08.427Z,3.40
2018-12-13T10:59:37.240Z,3.30
2018-12-13T11:02:10.201Z,3.30
2018-12-13T11:04:38.942Z,3.30
2018-12-13T11:07:07.750Z,3.30
2018-12-13T11:09:36.612Z,3.30
2018-12-13T11:12:05.612Z,3.30
2018-12-13T11:14:34.359Z,3.30
2018-12-13T11:17:03.086Z,3.30
2018-12-13T11:19:31.892Z,3.30
2018-12-13T11:22:00.651Z,3.30
2018-12-13T11:24:29.434Z,3.40
2018-12-13T11:27:08.239Z,3.40
2018-12-13T11:29:48.223Z,3.40
2018-12-13T11:32:17.013Z,3.40
2018-12-13T11:34:45.757Z,3.40
2018-12-13T11:37:14.545Z,3.30
2018-12-13T11:39:45.352Z,3.30
2018-12-13T11:42:14.368Z,3.30
2018-12-13T11:44:43.088Z,3.30
2018-12-13T11:47:11.755Z,3.30
2018-12-13T11:49:40.546Z,3.40
2018-12-13T11:52:09.256Z,3.40
2018-12-13T11:54:42.568Z,3.40
2018-12-13T11:57:11.536Z,3.30
2018-12-13T11:59:40.303Z,3.30
2018-12-13T12:02:09.013Z,3.20
2018-12-13T12:04:37.795Z,3.20
2018-12-13T12:07:06.671Z,3.20
2018-12-13T12:09:35.387Z,3.10
2018-12-13T12:12:04.164Z,3.10
2018-12-13T12:14:32.824Z,3.10
2018-12-13T12:17:01.554Z,3.00
2018-12-13T12:19:30.290Z,3.10
2018-12-13T12:21:59.060Z,3.00
2018-12-13T12:24:27.809Z,3.00
2018-12-13T12:26:56.620Z,3.00
2018-12-13T12:29:25.412Z,2.90
2018-12-13T12:31:54.200Z,2.90
2018-12-13T12:34:22.960Z,2.90
2018-12-13T12:36:51.684Z,2.90
2018-12-13T12:39:20.456Z,2.90
2018-12-13T12:41:49.186Z,3.00
2018-12-13T12:44:17.892Z,3.00
2018-12-13T12:46:46.840Z,2.90
2018-12-13T12:49:15.553Z,3.00
2018-12-13T12:51:44.349Z,3.00
2018-12-13T12:54:13.079Z,2.90
2018-12-13T12:56:41.903Z,2.90
2018-12-13T12:59:10.618Z,2.80
2018-12-13T13:01:39.320Z,2.80
2018-12-13T13:04:08.033Z,2.70
2018-12-13T13:06:37.055Z,2.70
2018-12-13T13:09:08.306Z,2.70
2018-12-13T13:11:37.306Z,2.60
2018-12-13T13:14:06.003Z,2.60
2018-12-13T13:16:34.687Z,2.60
2018-12-13T13:19:03.381Z,2.60
2018-12-13T13:21:32.002Z,2.60
2018-12-13T13:24:00.791Z,2.50
2018-12-13T13:26:29.460Z,2.50
2018-12-13T13:28:58.119Z,2.50
2018-12-13T13:31:26.734Z,2.50
2018-12-13T13:33:55.639Z,2.40
2018-12-13T13:36:24.313Z,2.40
2018-12-13T13:38:54.562Z,2.40
2018-12-13T13:41:23.486Z,2.40
2018-12-13T13:43:52.272Z,2.30
2018-12-13T13:46:20.914Z,2.30
2018-12-13T13:48:49.644Z,2.30
2018-12-13T13:51:18.323Z,2.30
2018-12-13T13:53:46.971Z,2.30
2018-12-13T13:56:15.698Z,2.30
2018-12-13T13:58:44.360Z,2.30
2018-12-13T14:01:13.057Z,2.20
2018-12-13T14:03:41.755Z,2.20
2018-12-13T14:06:10.414Z,2.20
2018-12-13T14:08:39.075Z,2.20
2018-12-13T14:11:07.755Z,2.20
2018-12-13T14:13:36.538Z,2.20
2018-12-13T14:16:05.208Z,2.10
2018-12-13T14:18:33.954Z,2.20
2018-12-13T14:21:02.671Z,2.10
2018-12-13T14:23:31.496Z,2.10
2018-12-13T14:26:00.354Z,2.10
2018-12-13T14:28:29.187Z,2.10
2018-12-13T14:30:58.051Z,2.10
2018-12-13T14:33:26.850Z,2.10
2018-12-13T14:35:55.621Z,2.10
2018-12-13T14:38:24.893Z,2.00
2018-12-13T14:40:53.739Z,2.00
2018-12-13T14:43:22.743Z,2.00
2018-12-13T14:45:51.470Z,2.00
2018-12-13T14:48:20.752Z,2.00
2018-12-13T14:50:49.512Z,2.00
2018-12-13T14:53:18.316Z,2.00
2018-12-13T14:55:47.112Z,2.00
2018-12-13T14:58:15.952Z,2.00
2018-12-13T15:00:44.761Z,2.00
2018-12-13T15:03:13.943Z,2.00
2018-12-13T15:05:42.837Z,1.90
2018-12-13T15:08:11.655Z,1.90
2018-12-13T15:10:40.351Z,1.90
2018-12-13T15:13:09.886Z,1.90
2018-12-13T15:15:38.539Z,1.80
2018-12-13T15:18:07.303Z,1.80
2018-12-13T15:20:36.030Z,1.80
2018-12-13T15:23:04.837Z,1.80
2018-12-13T15:25:33.720Z,1.80
2018-12-13T15:28:04.634Z,1.70
2018-12-13T15:30:34.670Z,1.70
2018-12-13T15:33:03.634Z,1.70
2018-12-13T15:35:32.395Z,1.70
2018-12-13T15:38:01.389Z,1.70
2018-12-13T15:40:30.237Z,1.70
2018-12-13T15:42:59.463Z,1.70
2018-12-13T15:45:28.403Z,1.70
2018-12-13T15:47:57.220Z,1.70
2018-12-13T15:50:26.153Z,1.70
2018-12-13T15:52:55.064Z,1.60
2018-12-13T15:55:23.826Z,1.60
2018-12-13T15:57:52.565Z,1.60
2018-12-13T16:00:21.427Z,1.60
2018-12-13T16:02:50.185Z,1.60
2018-12-13T16:05:19.095Z,1.60
2018-12-13T16:07:47.808Z,1.60
2018-12-13T16:10:16.561Z,1.60
2018-12-13T16:12:45.293Z,1.60
2018-12-13T16:15:14.089Z,1.60
2018-12-13T16:17:42.793Z,1.50
2018-12-13T16:20:11.683Z,1.60
2018-12-13T16:22:40.541Z,1.60
2018-12-13T16:25:09.275Z,1.60
2018-12-13T16:27:38.025Z,1.60
2018-12-13T16:30:07.823Z,1.60
2018-12-13T16:32:36.596Z,1.60
2018-12-13T16:35:05.562Z,1.60
2018-12-13T16:37:34.371Z,1.50
2018-12-13T16:40:03.234Z,1.50
2018-12-13T16:42:32.027Z,1.50
2018-12-13T16:45:00.851Z,1.50
2018-12-13T16:47:29.647Z,1.50
2018-12-13T16:49:58.484Z,1.50
2018-12-13T16:52:27.220Z,1.50
2018-12-13T16:54:56.283Z,1.50
2018-12-13T16:57:25.134Z,1.50
2018-12-13T16:59:54.043Z,1.50
2018-12-13T17:02:22.980Z,1.40
2018-12-13T17:04:51.824Z,1.50
2018-12-13T17:07:20.732Z,1.50
2018-12-13T17:09:49.519Z,1.40
2018-12-13T17:12:18.257Z,1.40
2018-12-13T17:14:47.537Z,1.40
2018-12-13T17:17:16.423Z,1.40
2018-12-13T17:19:45.425Z,1.40
2018-12-13T17:22:14.658Z,1.30
2018-12-13T17:24:43.551Z,1.40
2018-12-13T17:27:12.358Z,1.30
2018-12-13T17:29:41.171Z,1.30
2018-12-13T17:32:09.932Z,1.30
2018-12-13T17:34:38.674Z,1.30
2018-12-13T17:37:07.480Z,1.30
2018-12-13T17:39:36.282Z,1.30
2018-12-13T17:42:05.169Z,1.30
2018-12-13T17:44:33.924Z,1.30
2018-12-13T17:47:02.620Z,1.30
2018-12-13T17:49:31.393Z,1.30
2018-12-13T17:52:00.129Z,1.30
2018-12-13T17:54:28.871Z,1.20
2018-12-13T17:56:57.641Z,1.20
2018-12-13T17:59:26.411Z,1.20
2018-12-13T18:01:55.281Z,1.10
2018-12-13T18:04:24.033Z,1.10
2018-12-13T18:06:52.752Z,1.10
2018-12-13T18:09:21.486Z,1.10
2018-12-13T18:11:50.290Z,1.00
2018-12-13T18:14:19.071Z,1.00
2018-12-13T18:16:47.859Z,1.00
2018-12-13T18:19:16.582Z,1.00
2018-12-13T18:21:45.493Z,0.90
2018-12-13T18:24:15.081Z,0.90
2018-12-13T18:26:43.918Z,0.90
2018-12-13T18:29:12.708Z,0.90
2018-12-13T18:31:41.706Z,0.90
2018-12-13T18:34:10.544Z,0.80
2018-12-13T18:36:39.493Z,0.80
2018-12-13T18:39:08.894Z,0.80
2018-12-13T18:41:37.670Z,0.80
2018-12-13T18:44:06.419Z,0.80
2018-12-13T18:46:35.165Z,0.70
2018-12-13T18:49:04.026Z,0.80
2018-12-13T18:51:32.762Z,0.70
2018-12-13T18:54:03.733Z,0.70
2018-12-13T18:56:32.660Z,0.70
2018-12-13T18:59:03.536Z,0.70
2018-12-13T19:01:32.436Z,0.70
2018-12-13T19:04:01.382Z,0.70
2018-12-13T19:06:30.149Z,0.70
2018-12-13T19:08:58.937Z,0.70
2018-12-13T19:11:28.197Z,0.60
2018-12-13T19:13:58.000Z,0.60
2018-12-13T19:16:27.201Z,0.60
2018-12-13T19:18:57.781Z,0.60
2018-12-13T19:21:27.283Z,0.60
2018-12-13T19:23:56.102Z,0.60
2018-12-13T19:26:24.924Z,0.60
2018-12-13T19:28:54.090Z,0.60
2018-12-13T19:31:23.118Z,0.60
2018-12-13T19:33:51.984Z,0.60
2018-12-13T19:36:21.357Z,0.60
2018-12-13T19:38:50.187Z,0.60
2018-12-13T19:41:18.995Z,0.60
2018-12-13T19:43:47.827Z,0.60
2018-12-13T19:46:16.560Z,0.60
2018-12-13T19:48:45.409Z,0.60
2018-12-13T19:51:14.277Z,0.60
2018-12-13T19:53:43.390Z,0.60
2018-12-13T19:56:12.288Z,0.60
2018-12-13T19:58:41.070Z,0.60
2018-12-13T20:01:09.812Z,0.60
2018-12-13T20:03:38.649Z,0.60
2018-12-13T20:06:08.912Z,0.60
2018-12-13T20:08:37.812Z,0.60
2018-12-13T20:11:06.755Z,0.60
2018-12-13T20:13:35.657Z,0.60
2018-12-13T20:16:04.567Z,0.60
2018-12-13T20:18:33.651Z,0.60
2018-12-13T20:21:02.558Z,0.60
2018-12-13T20:23:31.350Z,0.60
2018-12-13T20:26:00.186Z,0.60
2018-12-13T20:28:28.924Z,0.60
2018-12-13T20:30:57.761Z,0.60
2018-12-13T20:33:29.092Z,0.60
2018-12-13T20:35:58.663Z,0.60
2018-12-13T20:38:27.447Z,0.60
2018-12-13T20:41:01.021Z,0.60
2018-12-13T20:43:29.002Z,0.60
2018-12-13T20:45:57.812Z,0.60
2018-12-13T20:48:26.579Z,0.60
2018-12-13T20:50:56.122Z,0.60
2018-12-13T20:53:24.993Z,0.60
2018-12-13T20:55:54.911Z,0.60
2018-12-13T20:58:24.539Z,0.60
2018-12-13T21:00:54.757Z,0.50
2018-12-13T21:03:24.160Z,0.50
2018-12-13T21:05:52.926Z,0.50
2018-12-13T21:08:22.086Z,0.50
2018-12-13T21:10:50.868Z,0.50
2018-12-13T21:13:19.872Z,0.50
2018-12-13T21:15:48.704Z,0.50
2018-12-13T21:18:17.545Z,0.50
2018-12-13T21:20:46.466Z,0.40
2018-12-13T21:23:15.375Z,0.40
2018-12-13T21:25:44.211Z,0.40
2018-12-13T21:28:12.983Z,0.40
2018-12-13T21:30:42.093Z,0.40
2018-12-13T21:33:10.837Z,0.40
2018-12-13T21:35:39.661Z,0.40
2018-12-13T21:38:08.431Z,0.40
2018-12-13T21:40:37.216Z,0.30
2018-12-13T21:43:06.172Z,0.30
2018-12-13T21:45:35.293Z,0.30
2018-12-13T21:48:04.063Z,0.30
2018-12-13T21:50:32.874Z,0.30
2018-12-13T21:53:01.601Z,0.30
2018-12-13T21:55:30.435Z,0.30
2018-12-13T21:57:59.314Z,0.20
2018-12-13T22:00:28.191Z,0.20
2018-12-13T22:02:56.986Z,0.20
2018-12-13T22:05:25.686Z,0.20
2018-12-13T22:07:54.419Z,0.20
2018-12-13T22:10:23.145Z,0.20
2018-12-13T22:12:51.905Z,0.20
2018-12-13T22:15:20.590Z,0.20
2018-12-13T22:17:49.394Z,0.20
2018-12-13T22:20:18.099Z,0.10
2018-12-13T22:22:46.783Z,0.10
2018-12-13T22:25:15.585Z,0.10
2018-12-13T22:27:44.309Z,0.10
2018-12-13T22:30:13.042Z,0.10
2018-12-13T22:32:41.778Z,0.10
2018-12-13T22:35:10.458Z,0.10
2018-12-13T22:37:39.215Z,0.10
2018-12-13T22:40:08.088Z,0.10
2018-12-13T22:42:36.971Z,0.00
2018-12-13T22:45:06.373Z,0.00
2018-12-13T22:47:35.290Z,0.00
2018-12-13T22:50:04.147Z,0.00
2018-12-13T22:52:32.914Z,0.00
2018-12-13T22:55:01.615Z,0.00
2018-12-13T22:57:30.459Z,0.00
2018-12-13T22:59:59.125Z,-0.10
2018-12-13T23:02:28.372Z,-0.10
2018-12-13T23:04:57.073Z,-0.10
2018-12-13T23:07:25.810Z,-0.10
2018-12-13T23:09:54.527Z,-0.20
2018-12-13T23:12:23.213Z,-0.20
2018-12-13T23:14:52.083Z,-0.20
2018-12-13T23:17:20.903Z,-0.30
2018-12-13T23:19:49.630Z,-0.20
2018-12-13T23:22:18.359Z,-0.20
2018-12-13T23:24:47.064Z,-0.20
2018-12-13T23:27:15.777Z,-0.20
2018-12-13T23:29:44.497Z,-0.30
2018-12-13T23:32:13.217Z,-0.30
2018-12-13T23:34:41.951Z,-0.30
2018-12-13T23:37:11.742Z,-0.30
2018-12-13T23:39:40.468Z,-0.30
2018-12-13T23:42:09.147Z,-0.30
2018-12-13T23:44:37.875Z,-0.30
2018-12-13T23:47:06.657Z,-0.30
2018-12-13T23:49:35.447Z,-0.30
2018-12-13T23:52:04.189Z,-0.30
2018-12-13T23:54:32.897Z,-0.30
2018-12-13T23:57:01.629Z,-0.30
2018-12-13T23:59:30.350Z,-0.30
